August 11, 2022

Time Code Weather Temp. Visibility Ceiling Wind METAR/SPECI
18:00
V
35 °C 10 km+ - 260° 260° 4 kt METAR LFCR 111600Z AUTO 26004KT 170V340 CAVOK 35/10 Q1015 NOSIG
17:30
V
35 °C 10 km+ - 310° 310° 6 kt METAR LFCR 111530Z AUTO 31006KT 280V020 CAVOK 35/11 Q1015 NOSIG
17:00
V
35 °C 10 km+ - 280° 280° 5 kt METAR LFCR 111500Z AUTO 28005KT 190V350 CAVOK 35/10 Q1016 NOSIG
16:30
V
35 °C 10 km+ - Var Var 5 kt METAR LFCR 111430Z AUTO VRB05KT CAVOK 35/10 Q1016 NOSIG
16:00
V
35 °C 10 km+ - 250° 250° 8 kt METAR LFCR 111400Z AUTO 25008KT 170V330 CAVOK 35/11 Q1016 NOSIG
15:30
V
35 °C 10 km+ - 170° 170° 5 kt METAR LFCR 111330Z AUTO 17005KT 090V240 CAVOK 35/11 Q1016 NOSIG
15:00
V
34 °C 10 km+ - Var Var 3 kt METAR LFCR 111300Z AUTO VRB03KT CAVOK 34/11 Q1017 NOSIG
14:30
V
34 °C 10 km+ - Var Var 5 kt METAR LFCR 111230Z AUTO VRB05KT CAVOK 34/12 Q1017 NOSIG
14:00
V
34 °C 10 km+ - Var Var 5 kt METAR LFCR 111200Z AUTO VRB05KT CAVOK 34/12 Q1017 NOSIG
13:30
V
33 °C 10 km+ - Var Var 3 kt METAR LFCR 111130Z AUTO VRB03KT CAVOK 33/10 Q1017 NOSIG
13:00
V
33 °C 10 km+ - 220° 220° 5 kt METAR LFCR 111100Z AUTO 22005KT 140V270 CAVOK 33/10 Q1018 NOSIG
12:30
V
32 °C 10 km+ - 190° 190° 5 kt METAR LFCR 111030Z AUTO 19005KT 110V250 CAVOK 32/12 Q1018 NOSIG
12:00
V
32 °C 10 km+ - 170° 170° 5 kt METAR LFCR 111000Z AUTO 17005KT 100V240 CAVOK 32/12 Q1018 NOSIG
11:30
V
31 °C 10 km+ - 210° 210° 5 kt METAR LFCR 110930Z AUTO 21005KT 130V260 CAVOK 31/12 Q1018 NOSIG
11:00
V
30 °C 10 km+ - 120° 120° 5 kt METAR LFCR 110900Z AUTO 12005KT 060V180 CAVOK 30/12 Q1018 NOSIG
10:30
V
28 °C 10 km+ - 120° 120° 5 kt METAR LFCR 110830Z AUTO 12005KT 090V180 CAVOK 28/11 Q1018 NOSIG
10:00
V
27 °C 10 km+ - 120° 120° 7 kt METAR LFCR 110800Z AUTO 12007KT 090V160 CAVOK 27/11 Q1018 NOSIG
09:30
V
26 °C 10 km+ - 100° 100° 5 kt METAR LFCR 110730Z AUTO 10005KT CAVOK 26/11 Q1018 NOSIG
09:00
V
24 °C 10 km+ - 120° 120° 7 kt METAR LFCR 110700Z AUTO 12007KT 090V160 CAVOK 24/11 Q1018 NOSIG
08:30
V
23 °C 10 km+ - 130° 130° 4 kt METAR LFCR 110630Z AUTO 13004KT CAVOK 23/11 Q1018 NOSIG
08:00
V
22 °C 10 km+ - 090° 090° 4 kt METAR LFCR 110600Z AUTO 09004KT CAVOK 22/11 Q1018 NOSIG
07:30
V
21 °C 10 km+ - 120° 120° 5 kt METAR LFCR 110530Z AUTO 12005KT 050V150 CAVOK 21/11 Q1018 NOSIG
07:00
V
19 °C 10 km+ - 130° 130° 7 kt METAR LFCR 110500Z AUTO 13007KT CAVOK 19/11 Q1018 NOSIG
06:30
V
20 °C 10 km+ - Var Var 3 kt METAR LFCR 110430Z AUTO VRB03KT CAVOK 20/11 Q1018 NOSIG
06:00
V
20 °C 10 km+ - 130° 130° 4 kt METAR LFCR 110400Z AUTO 13004KT 070V150 CAVOK 20/12 Q1018 NOSIG
05:30
V
19 °C 10 km+ - Var Var 3 kt METAR LFCR 110330Z AUTO VRB03KT CAVOK 19/12 Q1018 NOSIG
05:00
V
20 °C 10 km+ - 110° 110° 5 kt METAR LFCR 110300Z AUTO 11005KT CAVOK 20/13 Q1018 NOSIG
04:30
V
19 °C 10 km+ - 130° 130° 5 kt METAR LFCR 110230Z AUTO 13005KT CAVOK 19/13 Q1018 NOSIG
04:00
V
19 °C 10 km+ - 120° 120° 3 kt METAR LFCR 110200Z AUTO 12003KT CAVOK 19/13 Q1018 NOSIG
03:30
V
19 °C 10 km+ - 140° 140° 3 kt METAR LFCR 110130Z AUTO 14003KT CAVOK 19/12 Q1018 NOSIG
03:00
V
20 °C 10 km+ - 140° 140° 3 kt METAR LFCR 110100Z AUTO 14003KT CAVOK 20/13 Q1018 NOSIG
02:30
V
21 °C 10 km+ - 130° 130° 3 kt METAR LFCR 110030Z AUTO 13003KT CAVOK 21/12 Q1018 NOSIG
02:00
V
22 °C 10 km+ - 090° 090° 4 kt METAR LFCR 110000Z AUTO 09004KT CAVOK 22/13 Q1018 NOSIG
01:30
V
23 °C 10 km+ - 100° 100° 5 kt METAR LFCR 102330Z AUTO 10005KT CAVOK 23/12 Q1018 NOSIG
01:00
V
23 °C 10 km+ - 080° 080° 4 kt METAR LFCR 102300Z AUTO 08004KT CAVOK 23/12 Q1018 BECMG 14012KT
00:30
V
24 °C 10 km+ - 080° 080° 6 kt METAR LFCR 102230Z AUTO 08006KT CAVOK 24/12 Q1018 BECMG 14012KT
00:00
V
25 °C 10 km+ - 080° 080° 7 kt METAR LFCR 102200Z AUTO 08007KT CAVOK 25/12 Q1018 BECMG 14012KT

August 10, 2022

Time Code Weather Temp. Visibility Ceiling Wind METAR/SPECI
23:30
V
25 °C 10 km+ - 120° 120° 4 kt METAR LFCR 102130Z AUTO 12004KT 070V150 CAVOK 25/12 Q1018 NOSIG
23:00
V
25 °C 10 km+ - 150° 150° 6 kt METAR LFCR 102100Z AUTO 15006KT CAVOK 25/12 Q1018 NOSIG
22:30
V
26 °C 10 km+ - 160° 160° 7 kt METAR LFCR 102030Z AUTO 16007KT CAVOK 26/12 Q1018 NOSIG
22:00
V
27 °C 10 km+ - 160° 160° 7 kt METAR LFCR 102000Z AUTO 16007KT CAVOK 27/11 Q1017 NOSIG
21:30
V
29 °C 10 km+ - 180° 180° 8 kt METAR LFCR 101930Z AUTO 18008KT 140V220 CAVOK 29/11 Q1017 NOSIG
21:00
V
29 °C 10 km+ - 320° 320° 3 kt METAR LFCR 101900Z AUTO 32003KT CAVOK 29/05 Q1017 BECMG 14012KT
20:30
V
31 °C 10 km+ - 320° 320° 4 kt METAR LFCR 101830Z AUTO 32004KT CAVOK 31/05 Q1017 BECMG 14012KT
20:00
V
33 °C 10 km+ - 320° 320° 4 kt METAR LFCR 101800Z AUTO 32004KT 290V360 CAVOK 33/05 Q1016 NOSIG
19:30
V
33 °C 10 km+ - 290° 290° 8 kt METAR LFCR 101730Z AUTO 29008KT 250V320 CAVOK 33/04 Q1016 NOSIG
19:00
V
34 °C 10 km+ - 260° 260° 7 kt METAR LFCR 101700Z AUTO 26007KT 230V310 CAVOK 34/05 Q1016 NOSIG
18:30
V
34 °C 10 km+ - 250° 250° 8 kt METAR LFCR 101630Z AUTO 25008KT 220V280 CAVOK 34/06 Q1017 NOSIG
18:00
V
34 °C 10 km+ - 290° 290° 6 kt METAR LFCR 101600Z AUTO 29006KT 220V340 CAVOK 34/06 Q1017 NOSIG
17:30
V
34 °C 10 km+ - 180° 180° 4 kt METAR LFCR 101530Z AUTO 18004KT 090V260 CAVOK 34/05 Q1017 NOSIG
17:00
V
35 °C 10 km+ - 240° 240° 7 kt METAR LFCR 101500Z AUTO 24007KT 200V310 CAVOK 35/04 Q1017 NOSIG
16:30
V
34 °C 10 km+ - 290° 290° 3 kt METAR LFCR 101430Z AUTO 29003KT 210V340 CAVOK 34/05 Q1017 NOSIG
16:00
V
34 °C 10 km+ - Var Var 5 kt METAR LFCR 101400Z AUTO VRB05KT CAVOK 34/06 Q1018 NOSIG
15:30
V
34 °C 10 km+ - 220° 220° 5 kt METAR LFCR 101330Z AUTO 22005KT 180V260 CAVOK 34/06 Q1018 NOSIG
15:00
V
34 °C 10 km+ - 320° 320° 7 kt METAR LFCR 101300Z AUTO 32007KT 280V360 CAVOK 34/06 Q1018 NOSIG
14:30
V
34 °C 10 km+ - Var Var 3 kt METAR LFCR 101230Z AUTO VRB03KT CAVOK 34/07 Q1018 NOSIG
14:00
V
33 °C 10 km+ - 170° 170° 8 kt METAR LFCR 101200Z AUTO 17008KT 120V220 CAVOK 33/07 Q1019 NOSIG
13:30
V
33 °C 10 km+ - 170° 170° 7 kt METAR LFCR 101130Z AUTO 17007KT 140V230 CAVOK 33/08 Q1019 NOSIG
13:00
V
32 °C 10 km+ - 210° 210° 6 kt METAR LFCR 101100Z AUTO 21006KT 140V260 CAVOK 32/07 Q1019 NOSIG
12:30
V
32 °C 10 km+ - 220° 220° 6 kt METAR LFCR 101030Z AUTO 22006KT 160V260 CAVOK 32/08 Q1019 NOSIG
12:00
V
32 °C 10 km+ - 170° 170° 7 kt METAR LFCR 101000Z AUTO 17007KT 110V250 CAVOK 32/08 Q1019 NOSIG
11:30
V
31 °C 10 km+ - 180° 180° 6 kt METAR LFCR 100930Z AUTO 18006KT 120V240 CAVOK 31/09 Q1019 NOSIG
11:00
V
30 °C 10 km+ - 170° 170° 5 kt METAR LFCR 100900Z AUTO 17005KT 120V270 CAVOK 30/08 Q1019 NOSIG
10:30
V
29 °C 10 km+ - 120° 120° 4 kt METAR LFCR 100830Z AUTO 12004KT 060V170 CAVOK 29/10 Q1019 NOSIG
10:00
V
28 °C 10 km+ - 120° 120° 6 kt METAR LFCR 100800Z AUTO 12006KT 080V150 CAVOK 28/10 Q1019 NOSIG
09:30
V
26 °C 10 km+ - 130° 130° 6 kt METAR LFCR 100730Z AUTO 13006KT CAVOK 26/10 Q1020 NOSIG
09:00
V
25 °C 10 km+ - 090° 090° 5 kt METAR LFCR 100700Z AUTO 09005KT CAVOK 25/09 Q1020 NOSIG
08:30
V
23 °C 10 km+ - 080° 080° 5 kt METAR LFCR 100630Z AUTO 08005KT CAVOK 23/09 Q1020 NOSIG
08:00
V
21 °C 10 km+ - 090° 090° 3 kt METAR LFCR 100600Z AUTO 09003KT CAVOK 21/09 Q1020 NOSIG
07:30
V
15 °C 10 km+ - 080° 080° 3 kt METAR LFCR 100530Z AUTO 08003KT CAVOK 15/07 Q1020 NOSIG
07:00
V
18 °C 10 km+ - 050° 050° 4 kt METAR LFCR 100500Z AUTO 05004KT CAVOK 18/08 Q1019 NOSIG
06:30
V
16 °C 10 km+ - Var 000° 0 kt METAR LFCR 100430Z AUTO 00000KT CAVOK 16/07 Q1019 NOSIG
06:00
V
16 °C 10 km+ - 120° 120° 3 kt METAR LFCR 100400Z AUTO 12003KT CAVOK 16/08 Q1019 NOSIG
05:30
V
16 °C 10 km+ - 130° 130° 2 kt METAR LFCR 100330Z AUTO 13002KT CAVOK 16/07 Q1019 NOSIG
05:00
V
16 °C 10 km+ - 120° 120° 2 kt METAR LFCR 100300Z AUTO 12002KT CAVOK 16/07 Q1019 NOSIG
04:30
V
19 °C 10 km+ - 070° 070° 2 kt METAR LFCR 100230Z AUTO 07002KT CAVOK 19/08 Q1019 NOSIG
04:00
V
17 °C 10 km+ - 110° 110° 3 kt METAR LFCR 100200Z AUTO 11003KT CAVOK 17/07 Q1019 NOSIG
03:30
V
22 °C 10 km+ - 100° 100° 4 kt METAR LFCR 100130Z AUTO 10004KT CAVOK 22/08 Q1019 NOSIG
03:00
V
19 °C 10 km+ - 070° 070° 3 kt METAR LFCR 100100Z AUTO 07003KT CAVOK 19/08 Q1019 NOSIG
02:30
V
19 °C 10 km+ - 070° 070° 1 kt METAR LFCR 100030Z AUTO 07001KT CAVOK 19/07 Q1020 NOSIG
02:00
V
18 °C 10 km+ - 120° 120° 2 kt METAR LFCR 100000Z AUTO 12002KT CAVOK 18/07 Q1020 NOSIG
01:30
V
19 °C 10 km+ - Var 000° 0 kt METAR LFCR 092330Z AUTO 00000KT CAVOK 19/07 Q1020 TEMPO 09010KT
01:00
V
20 °C 10 km+ - Var 000° 0 kt METAR LFCR 092300Z AUTO 00000KT CAVOK 20/07 Q1020 TEMPO 09010KT
00:30
V
21 °C 10 km+ - 180° 180° 2 kt METAR LFCR 092230Z AUTO 18002KT CAVOK 21/07 Q1020 TEMPO 09010KT
00:00
V
24 °C 10 km+ - 020° 020° 3 kt METAR LFCR 092200Z AUTO 02003KT 360V060 CAVOK 24/07 Q1020 NOSIG

August 9, 2022

Time Code Weather Temp. Visibility Ceiling Wind METAR/SPECI
23:30
V
25 °C 10 km+ - 030° 030° 4 kt METAR LFCR 092130Z AUTO 03004KT CAVOK 25/07 Q1020 TEMPO 09010KT
23:00
V
26 °C 10 km+ - 040° 040° 5 kt METAR LFCR 092100Z AUTO 04005KT 360V060 CAVOK 26/07 Q1020 NOSIG
22:30
V
27 °C 10 km+ - 050° 050° 5 kt METAR LFCR 092030Z AUTO 05005KT CAVOK 27/07 Q1020 NOSIG
22:00
V
26 °C 10 km+ - Var Var 2 kt METAR LFCR 092000Z AUTO VRB02KT CAVOK 26/06 Q1020 NOSIG
21:30
V
27 °C 10 km+ - 290° 290° 2 kt METAR LFCR 091930Z AUTO 29002KT CAVOK 27/06 Q1019 NOSIG
21:00
V
27 °C 10 km+ - 280° 280° 4 kt METAR LFCR 091900Z AUTO 28004KT CAVOK 27/06 Q1019 NOSIG
20:30
V
29 °C 10 km+ - 300° 300° 7 kt METAR LFCR 091830Z AUTO 30007KT CAVOK 29/06 Q1019 NOSIG
20:00
V
32 °C 10 km+ - 270° 270° 8 kt METAR LFCR 091800Z AUTO 27008KT CAVOK 32/06 Q1019 NOSIG
19:30
V
32 °C 10 km+ - 280° 280° 9 kt METAR LFCR 091730Z AUTO 28009KT CAVOK 32/06 Q1019 NOSIG
19:00
V
33 °C 10 km+ - 310° 310° 7 kt METAR LFCR 091700Z AUTO 31007KT CAVOK 33/06 Q1019 NOSIG
18:30
V
33 °C 10 km+ - 050° 050° 4 kt METAR LFCR 091630Z AUTO 05004KT 330V140 CAVOK 33/06 Q1019 NOSIG
18:00
V
33 °C 10 km+ - 320° 320° 6 kt METAR LFCR 091600Z AUTO 32006KT 260V020 CAVOK 33/06 Q1019 NOSIG
17:30
V
34 °C 10 km+ - 160° 160° 6 kt METAR LFCR 091530Z AUTO 16006KT 090V200 CAVOK 34/06 Q1019 NOSIG
17:00
V
33 °C 10 km+ - 340° 340° 7 kt METAR LFCR 091500Z AUTO 34007KT 290V030 CAVOK 33/06 Q1019 NOSIG
Older data

We and third parties follow your internet behavior on our website with cookies. If you continue, we assume you agree with our cookie policy. Learn more